createdAt,value
2023-04-10T00:00:04.125Z,55.60
2023-04-10T00:02:31.031Z,54.80
2023-04-10T00:04:58.050Z,54.70
2023-04-10T00:07:24.893Z,54.90
2023-04-10T00:09:51.631Z,54.70
2023-04-10T00:12:18.568Z,54.60
2023-04-10T00:14:46.023Z,54.70
2023-04-10T00:17:12.800Z,54.80
2023-04-10T00:19:39.645Z,54.90
2023-04-10T00:22:06.419Z,54.60
2023-04-10T00:24:33.186Z,54.00
2023-04-10T00:26:59.925Z,54.10
2023-04-10T00:29:26.756Z,54.30
2023-04-10T00:31:53.544Z,54.30
2023-04-10T00:34:20.339Z,54.00
2023-04-10T00:36:50.475Z,54.30
2023-04-10T00:39:17.211Z,54.20
2023-04-10T00:41:44.005Z,54.00
2023-04-10T00:44:10.763Z,54.20
2023-04-10T00:46:41.381Z,54.20
2023-04-10T00:49:09.575Z,54.80
2023-04-10T00:51:37.510Z,55.30
2023-04-10T00:54:04.782Z,55.00
2023-04-10T00:56:32.388Z,55.10
2023-04-10T00:58:59.463Z,55.00
2023-04-10T01:01:26.308Z,55.20
2023-04-10T01:03:54.312Z,55.50
2023-04-10T01:07:18.995Z,55.90
2023-04-10T01:09:54.422Z,56.80
2023-04-10T01:12:41.102Z,57.10
2023-04-10T01:15:14.415Z,57.80
2023-04-10T01:17:56.504Z,58.40
2023-04-10T01:20:27.559Z,58.60
2023-04-10T01:23:13.985Z,58.70
2023-04-10T01:25:46.342Z,58.70
2023-04-10T01:28:19.113Z,58.50
2023-04-10T01:30:53.965Z,58.40
2023-04-10T01:33:22.745Z,58.50
2023-04-10T01:35:56.414Z,58.20
2023-04-10T01:38:26.678Z,58.50
2023-04-10T01:40:54.890Z,59.00
2023-04-10T01:43:22.470Z,58.50
2023-04-10T01:45:51.535Z,59.00
2023-04-10T01:48:19.531Z,57.80
2023-04-10T01:50:47.025Z,57.70
2023-04-10T01:53:14.454Z,57.30
2023-04-10T01:55:42.198Z,58.30
2023-04-10T01:58:09.396Z,58.70
2023-04-10T02:00:41.313Z,58.90
2023-04-10T02:03:08.640Z,59.40
2023-04-10T02:06:05.300Z,60.20
2023-04-10T02:08:37.676Z,59.60
2023-04-10T02:11:21.947Z,59.90
2023-04-10T02:13:51.023Z,60.10
2023-04-10T02:16:21.973Z,60.60
2023-04-10T02:18:50.624Z,61.40
2023-04-10T02:21:17.457Z,61.20
2023-04-10T02:23:44.511Z,61.10
2023-04-10T02:26:11.234Z,60.60
2023-04-10T02:28:42.232Z,60.40
2023-04-10T02:31:08.991Z,60.30
2023-04-10T02:33:35.891Z,60.70
2023-04-10T02:36:02.708Z,61.00
2023-04-10T02:38:29.502Z,61.10
2023-04-10T02:40:56.228Z,61.20
2023-04-10T02:43:23.072Z,61.10
2023-04-10T02:45:49.888Z,61.00
2023-04-10T02:48:16.592Z,61.10
2023-04-10T02:50:46.326Z,60.50
2023-04-10T02:53:16.727Z,60.50
2023-04-10T02:55:43.440Z,60.90
2023-04-10T02:58:10.228Z,60.90
2023-04-10T03:00:37.342Z,60.90
2023-04-10T03:03:04.272Z,60.50
2023-04-10T03:05:31.217Z,60.00
2023-04-10T03:07:57.898Z,59.90
2023-04-10T03:10:24.711Z,59.30
2023-04-10T03:12:51.490Z,59.40
2023-04-10T03:15:18.383Z,59.70
2023-04-10T03:17:45.205Z,59.70
2023-04-10T03:20:12.398Z,59.40
2023-04-10T03:22:39.691Z,59.40
2023-04-10T03:25:06.878Z,59.30
2023-04-10T03:27:34.873Z,59.40
2023-04-10T03:30:02.804Z,59.40
2023-04-10T03:32:31.281Z,59.20
2023-04-10T03:34:59.187Z,59.10
2023-04-10T03:37:27.670Z,59.50
2023-04-10T03:39:54.488Z,59.70
2023-04-10T03:42:21.277Z,60.00
2023-04-10T03:44:47.994Z,59.90
2023-04-10T03:47:14.758Z,60.10
2023-04-10T03:49:41.568Z,60.10
2023-04-10T03:52:08.320Z,59.90
2023-04-10T03:54:35.519Z,60.00
2023-04-10T03:57:02.340Z,60.00
2023-04-10T03:59:38.199Z,59.80
2023-04-10T04:02:07.245Z,59.80
2023-04-10T04:04:34.422Z,59.80
2023-04-10T04:07:01.189Z,59.70
2023-04-10T04:09:27.989Z,59.50
2023-04-10T04:11:54.736Z,59.70
2023-04-10T04:14:21.610Z,59.80
2023-04-10T04:16:48.668Z,59.90
2023-04-10T04:19:17.683Z,60.40
2023-04-10T04:21:44.396Z,60.60
2023-04-10T04:24:11.134Z,60.70
2023-04-10T04:26:37.812Z,60.80
2023-04-10T04:29:04.577Z,60.90
2023-04-10T04:31:32.688Z,60.70
2023-04-10T04:34:00.612Z,60.60
2023-04-10T04:36:28.315Z,61.10
2023-04-10T04:38:55.331Z,61.10
2023-04-10T04:41:22.127Z,61.00
2023-04-10T04:43:49.518Z,61.00
2023-04-10T04:46:16.322Z,61.20
2023-04-10T04:48:43.110Z,61.60
2023-04-10T04:51:09.895Z,61.90
2023-04-10T04:53:37.003Z,61.60
2023-04-10T04:56:04.084Z,61.50
2023-04-10T04:58:30.850Z,62.40
2023-04-10T05:00:57.664Z,62.70
2023-04-10T05:03:24.687Z,62.10
2023-04-10T05:05:51.801Z,61.40
2023-04-10T05:08:18.546Z,62.10
2023-04-10T05:10:45.363Z,62.90
2023-04-10T05:13:12.610Z,62.70
2023-04-10T05:15:39.466Z,62.90
2023-04-10T05:18:06.412Z,63.60
2023-04-10T05:20:35.879Z,63.80
2023-04-10T05:23:03.144Z,62.80
2023-04-10T05:25:30.052Z,62.70
2023-04-10T05:27:57.008Z,62.80
2023-04-10T05:30:24.766Z,62.90
2023-04-10T05:32:51.523Z,62.30
2023-04-10T05:35:18.293Z,62.10
2023-04-10T05:37:45.252Z,61.20
2023-04-10T05:40:12.168Z,61.00
2023-04-10T05:42:38.911Z,59.80
2023-04-10T05:45:06.394Z,59.70
2023-04-10T05:47:33.273Z,59.90
2023-04-10T05:50:00.052Z,59.70
2023-04-10T05:52:26.805Z,59.90
2023-04-10T05:54:53.583Z,59.90
2023-04-10T05:57:20.329Z,59.70
2023-04-10T05:59:47.141Z,59.60
2023-04-10T06:02:14.046Z,59.40
2023-04-10T06:04:41.061Z,59.50
2023-04-10T06:07:07.855Z,58.60
2023-04-10T06:09:34.699Z,57.60
2023-04-10T06:12:01.756Z,57.80
2023-04-10T06:14:28.668Z,57.30
2023-04-10T06:16:55.531Z,56.80
2023-04-10T06:19:22.298Z,56.80
2023-04-10T06:21:49.010Z,54.70
2023-04-10T06:24:15.958Z,53.80
2023-04-10T06:26:42.709Z,52.30
2023-04-10T06:29:09.562Z,50.00
2023-04-10T06:31:36.544Z,49.20
2023-04-10T06:34:03.367Z,48.90
2023-04-10T06:36:30.226Z,47.80
2023-04-10T06:38:56.953Z,46.60
2023-04-10T06:41:23.758Z,45.60
2023-04-10T06:43:50.497Z,44.90
2023-04-10T06:46:17.894Z,43.50
2023-04-10T06:48:44.857Z,43.50
2023-04-10T06:51:11.634Z,43.50
2023-04-10T06:53:38.532Z,43.30
2023-04-10T06:56:05.995Z,43.10
2023-04-10T06:58:32.768Z,43.40
2023-04-10T07:01:04.558Z,43.40
2023-04-10T07:03:32.675Z,43.70
2023-04-10T07:06:01.923Z,42.90
2023-04-10T07:08:28.698Z,43.00
2023-04-10T07:10:56.617Z,43.00
2023-04-10T07:13:25.371Z,43.20
2023-04-10T07:15:52.245Z,42.00
2023-04-10T07:18:19.269Z,42.10
2023-04-10T07:20:46.008Z,41.80
2023-04-10T07:23:12.786Z,41.30
2023-04-10T07:25:42.590Z,38.90
2023-04-10T07:28:09.334Z,37.90
2023-04-10T07:30:36.644Z,37.20
2023-04-10T07:33:03.657Z,37.70
2023-04-10T07:35:30.502Z,37.40
2023-04-10T07:37:57.252Z,36.50
2023-04-10T07:40:24.018Z,37.60
2023-04-10T07:42:52.534Z,37.40
2023-04-10T07:45:20.612Z,37.10
2023-04-10T07:47:47.746Z,38.30
2023-04-10T07:50:14.667Z,37.30
2023-04-10T07:52:41.356Z,36.70
2023-04-10T07:55:08.468Z,36.20
2023-04-10T07:57:35.991Z,36.10
2023-04-10T08:00:03.413Z,36.30
2023-04-10T08:02:30.502Z,35.30
2023-04-10T08:04:57.505Z,35.10
2023-04-10T08:07:24.347Z,34.30
2023-04-10T08:09:51.081Z,34.00
2023-04-10T08:12:17.866Z,34.40
2023-04-10T08:14:45.311Z,33.10
2023-04-10T08:17:14.824Z,32.70
2023-04-10T08:19:43.382Z,33.50
2023-04-10T08:22:10.359Z,32.90
2023-04-10T08:24:37.209Z,33.00
2023-04-10T08:27:03.953Z,32.80
2023-04-10T08:29:30.901Z,33.40
2023-04-10T08:32:01.049Z,32.10
2023-04-10T08:34:28.298Z,31.10
2023-04-10T08:36:55.602Z,31.20
2023-04-10T08:39:22.400Z,31.00
2023-04-10T08:41:49.378Z,30.40
2023-04-10T08:44:16.636Z,30.00
2023-04-10T08:46:45.440Z,29.80
2023-04-10T08:49:22.795Z,29.80
2023-04-10T08:51:57.546Z,29.30
2023-04-10T08:54:33.618Z,30.00
2023-04-10T08:57:01.732Z,29.60
2023-04-10T08:59:30.884Z,29.20
2023-04-10T09:01:58.766Z,28.60
2023-04-10T09:04:27.082Z,28.50
2023-04-10T09:06:54.050Z,28.80
2023-04-10T09:09:21.089Z,27.40
2023-04-10T09:11:56.403Z,27.80
2023-04-10T09:14:25.303Z,28.60
2023-04-10T09:16:53.615Z,27.60
2023-04-10T09:19:31.749Z,28.00
2023-04-10T09:21:58.685Z,28.00
2023-04-10T09:24:26.483Z,28.40
2023-04-10T09:26:53.258Z,28.10
2023-04-10T09:29:20.258Z,27.50
2023-04-10T09:31:47.084Z,26.60
2023-04-10T09:34:18.913Z,26.40
2023-04-10T09:36:55.119Z,26.70
2023-04-10T09:39:22.351Z,26.70
2023-04-10T09:41:52.071Z,26.50
2023-04-10T09:44:31.794Z,25.50
2023-04-10T09:47:18.638Z,25.20
2023-04-10T09:49:53.390Z,24.80
2023-04-10T09:52:28.489Z,23.20
2023-04-10T09:55:00.361Z,24.20
2023-04-10T09:57:30.157Z,23.50
2023-04-10T09:59:59.051Z,25.00
2023-04-10T10:02:29.064Z,24.90
2023-04-10T10:04:57.154Z,24.50
2023-04-10T10:07:24.422Z,24.50
2023-04-10T10:09:52.633Z,24.30
2023-04-10T10:12:36.076Z,23.40
2023-04-10T10:15:13.008Z,23.00
2023-04-10T10:17:49.172Z,23.80
2023-04-10T10:20:19.462Z,23.70
2023-04-10T10:22:47.399Z,22.50
2023-04-10T10:25:14.322Z,22.00
2023-04-10T10:27:42.540Z,21.30
2023-04-10T10:30:28.060Z,18.30
2023-04-10T10:32:57.021Z,19.30
2023-04-10T10:35:28.700Z,20.20
2023-04-10T10:37:58.502Z,20.20
2023-04-10T10:40:31.977Z,20.70
2023-04-10T10:43:08.453Z,20.00
2023-04-10T10:45:41.123Z,20.40
2023-04-10T10:48:08.109Z,20.20
2023-04-10T10:50:53.784Z,19.70
2023-04-10T10:53:40.529Z,19.50
2023-04-10T10:56:19.300Z,19.90
2023-04-10T10:58:48.114Z,19.10
2023-04-10T11:01:16.051Z,19.60
2023-04-10T11:03:44.869Z,19.30
2023-04-10T11:06:14.909Z,18.90
2023-04-10T11:08:49.766Z,18.90
2023-04-10T11:11:25.040Z,18.80
2023-04-10T11:13:57.525Z,18.90
2023-04-10T11:16:43.840Z,19.60
2023-04-10T11:19:16.182Z,19.80
2023-04-10T11:22:07.459Z,19.70
2023-04-10T11:25:10.379Z,19.80
2023-04-10T11:27:46.405Z,19.90
2023-04-10T11:30:33.835Z,20.10
2023-04-10T11:33:01.810Z,18.40
2023-04-10T11:35:29.106Z,19.20
2023-04-10T11:38:16.433Z,18.90
2023-04-10T11:41:18.532Z,19.30
2023-04-10T11:43:45.398Z,20.20
2023-04-10T11:46:12.241Z,20.90
2023-04-10T11:48:39.184Z,20.00
2023-04-10T11:51:10.885Z,19.70
2023-04-10T11:53:39.054Z,20.00
2023-04-10T11:56:07.644Z,19.50
2023-04-10T11:58:34.438Z,18.70
2023-04-10T12:01:03.784Z,18.30
2023-04-10T12:03:41.745Z,18.70
2023-04-10T12:06:13.398Z,18.70
2023-04-10T12:08:47.821Z,17.70
2023-04-10T12:11:16.041Z,17.70
2023-04-10T12:13:42.829Z,17.80
2023-04-10T12:16:11.040Z,17.30
2023-04-10T12:18:38.307Z,17.60
2023-04-10T12:21:06.885Z,18.10
2023-04-10T12:23:38.504Z,18.00
2023-04-10T12:26:08.117Z,17.00
2023-04-10T12:28:35.782Z,17.00
2023-04-10T12:31:03.434Z,16.60
2023-04-10T12:33:30.453Z,16.00
2023-04-10T12:35:57.342Z,16.90
2023-04-10T12:38:43.190Z,18.30
2023-04-10T12:41:11.730Z,17.20
2023-04-10T12:43:44.769Z,16.70
2023-04-10T12:46:24.426Z,17.10
2023-04-10T12:48:51.214Z,16.30
2023-04-10T12:51:17.948Z,17.00
2023-04-10T12:53:45.751Z,15.90
2023-04-10T12:56:13.547Z,16.00
2023-04-10T12:58:42.597Z,16.90
2023-04-10T13:01:09.910Z,16.00
2023-04-10T13:03:38.016Z,16.60
2023-04-10T13:06:08.356Z,17.50
2023-04-10T13:08:35.867Z,16.60
2023-04-10T13:11:06.742Z,17.30
2023-04-10T13:13:33.589Z,16.10
2023-04-10T13:16:00.600Z,16.70
2023-04-10T13:18:27.561Z,16.20
2023-04-10T13:20:54.384Z,15.90
2023-04-10T13:23:21.269Z,15.70
2023-04-10T13:25:48.050Z,16.30
2023-04-10T13:28:15.952Z,16.50
2023-04-10T13:30:42.870Z,16.90
2023-04-10T13:33:09.723Z,17.10
2023-04-10T13:35:36.646Z,16.80
2023-04-10T13:38:04.166Z,17.00
2023-04-10T13:40:31.086Z,16.20
2023-04-10T13:42:57.898Z,16.30
2023-04-10T13:45:25.076Z,15.80
2023-04-10T13:47:51.880Z,16.30
2023-04-10T13:50:18.730Z,16.30
2023-04-10T13:52:45.838Z,15.70
2023-04-10T13:55:12.778Z,16.10
2023-04-10T13:57:39.820Z,16.60
2023-04-10T14:00:07.748Z,16.00
2023-04-10T14:02:34.734Z,15.60
2023-04-10T14:05:01.548Z,15.50
2023-04-10T14:07:28.361Z,16.10
2023-04-10T14:09:55.116Z,16.00
2023-04-10T14:12:23.167Z,16.60
2023-04-10T14:14:50.189Z,16.40
2023-04-10T14:17:17.172Z,16.00
2023-04-10T14:19:43.932Z,16.90
2023-04-10T14:22:10.719Z,17.50
2023-04-10T14:24:37.444Z,17.10
2023-04-10T14:27:04.350Z,17.20
2023-04-10T14:29:36.319Z,16.10
2023-04-10T14:32:06.191Z,15.50
2023-04-10T14:34:33.128Z,16.50
2023-04-10T14:36:59.951Z,15.60
2023-04-10T14:39:27.264Z,15.60
2023-04-10T14:41:54.071Z,15.60
2023-04-10T14:44:21.455Z,15.70
2023-04-10T14:46:48.254Z,16.20
2023-04-10T14:49:15.293Z,16.10
2023-04-10T14:51:45.922Z,16.00
2023-04-10T14:54:12.708Z,15.70
2023-04-10T14:56:39.524Z,15.70
2023-04-10T14:59:07.114Z,15.00
2023-04-10T15:01:35.539Z,15.30
2023-04-10T15:04:02.694Z,15.60
2023-04-10T15:06:30.062Z,15.50
2023-04-10T15:08:56.892Z,15.60
2023-04-10T15:11:23.746Z,16.10
2023-04-10T15:13:50.489Z,15.10
2023-04-10T15:16:17.826Z,14.60
2023-04-10T15:18:48.656Z,14.30
2023-04-10T15:21:16.229Z,14.30
2023-04-10T15:23:43.446Z,15.10
2023-04-10T15:26:16.777Z,15.00
2023-04-10T15:28:43.816Z,15.30
2023-04-10T15:31:11.619Z,15.90
2023-04-10T15:33:39.944Z,14.90
2023-04-10T15:36:08.053Z,14.90
2023-04-10T15:38:36.098Z,14.90
2023-04-10T15:41:12.127Z,16.00
2023-04-10T15:43:38.869Z,15.10
2023-04-10T15:46:06.081Z,15.20
2023-04-10T15:48:33.151Z,14.80
2023-04-10T15:51:04.023Z,15.00
2023-04-10T15:53:30.899Z,14.90
2023-04-10T15:55:57.690Z,15.20
2023-04-10T15:58:24.487Z,15.20
2023-04-10T16:00:51.519Z,15.20
2023-04-10T16:03:18.494Z,15.20
2023-04-10T16:05:45.470Z,15.20
2023-04-10T16:08:12.224Z,15.30
2023-04-10T16:10:39.076Z,15.50
2023-04-10T16:13:06.792Z,15.60
2023-04-10T16:15:35.422Z,15.40
2023-04-10T16:18:04.112Z,16.20
2023-04-10T16:20:31.545Z,15.20
2023-04-10T16:22:59.299Z,15.90
2023-04-10T16:25:27.473Z,15.80
2023-04-10T16:27:54.844Z,15.80
2023-04-10T16:30:21.922Z,16.30
2023-04-10T16:32:49.002Z,16.80
2023-04-10T16:35:18.061Z,17.10
2023-04-10T16:37:46.104Z,17.20
2023-04-10T16:40:13.053Z,17.20
2023-04-10T16:42:40.742Z,17.30
2023-04-10T16:45:08.585Z,17.70
2023-04-10T16:47:35.528Z,17.70
2023-04-10T16:50:02.893Z,17.30
2023-04-10T16:52:29.764Z,17.70
2023-04-10T16:54:56.554Z,18.00
2023-04-10T16:57:23.405Z,18.30
2023-04-10T16:59:50.397Z,18.40
2023-04-10T17:02:17.159Z,18.50
2023-04-10T17:04:43.935Z,19.00
2023-04-10T17:07:10.785Z,18.90
2023-04-10T17:09:37.903Z,19.10
2023-04-10T17:12:04.826Z,19.00
2023-04-10T17:14:31.764Z,19.40
2023-04-10T17:16:58.480Z,19.70
2023-04-10T17:19:25.394Z,20.00
2023-04-10T17:21:52.312Z,20.40
2023-04-10T17:24:19.145Z,20.70
2023-04-10T17:26:45.957Z,20.80
2023-04-10T17:29:12.695Z,20.40
2023-04-10T17:31:39.470Z,20.70
2023-04-10T17:34:06.285Z,20.70
2023-04-10T17:36:33.133Z,20.90
2023-04-10T17:39:00.959Z,20.90
2023-04-10T17:41:27.801Z,21.10
2023-04-10T17:43:54.613Z,21.40
2023-04-10T17:46:21.619Z,21.50
2023-04-10T17:48:48.470Z,21.60
2023-04-10T17:51:15.376Z,21.70
2023-04-10T17:53:42.235Z,21.90
2023-04-10T17:56:16.656Z,22.10
2023-04-10T17:58:43.425Z,22.10
2023-04-10T18:01:10.161Z,22.30
2023-04-10T18:03:36.992Z,22.50
2023-04-10T18:06:04.090Z,22.50
2023-04-10T18:08:30.799Z,22.90
2023-04-10T18:10:58.159Z,22.90
2023-04-10T18:13:24.984Z,23.10
2023-04-10T18:15:51.693Z,23.10
2023-04-10T18:18:18.535Z,23.00
2023-04-10T18:20:45.289Z,23.20
2023-04-10T18:23:12.066Z,23.50
2023-04-10T18:25:38.786Z,23.30
2023-04-10T18:28:14.230Z,23.50
2023-04-10T18:30:42.362Z,23.50
2023-04-10T18:33:11.115Z,23.60
2023-04-10T18:35:38.467Z,23.90
2023-04-10T18:38:05.320Z,23.90
2023-04-10T18:40:34.551Z,23.80
2023-04-10T18:43:01.386Z,23.90
2023-04-10T18:45:28.137Z,23.80
2023-04-10T18:47:54.887Z,23.90
2023-04-10T18:50:21.732Z,23.90
2023-04-10T18:52:48.416Z,24.30
2023-04-10T18:55:15.960Z,24.40
2023-04-10T18:57:42.680Z,24.70
2023-04-10T19:00:11.743Z,24.50
2023-04-10T19:02:38.605Z,24.70
2023-04-10T19:05:06.025Z,24.90
2023-04-10T19:07:32.948Z,25.00
2023-04-10T19:09:59.787Z,24.90
2023-04-10T19:12:26.509Z,25.00
2023-04-10T19:14:53.259Z,25.20
2023-04-10T19:17:21.800Z,25.20
2023-04-10T19:19:48.762Z,25.30
2023-04-10T19:22:16.398Z,25.20
2023-04-10T19:24:43.135Z,25.40
2023-04-10T19:27:09.852Z,25.30
2023-04-10T19:29:36.676Z,25.40
2023-04-10T19:32:03.900Z,25.50
2023-04-10T19:34:30.856Z,25.60
2023-04-10T19:36:57.703Z,25.70
2023-04-10T19:39:24.713Z,25.70
2023-04-10T19:41:51.402Z,25.60
2023-04-10T19:44:18.230Z,25.60
2023-04-10T19:46:45.087Z,25.80
2023-04-10T19:49:12.624Z,26.00
2023-04-10T19:51:39.456Z,26.10
2023-04-10T19:54:06.459Z,26.00
2023-04-10T19:56:34.908Z,26.50
2023-04-10T19:59:02.043Z,26.10
2023-04-10T20:01:29.135Z,26.20
2023-04-10T20:03:56.068Z,26.10
2023-04-10T20:06:22.982Z,26.10
2023-04-10T20:08:49.775Z,26.10
2023-04-10T20:11:16.773Z,26.20
2023-04-10T20:13:43.606Z,26.30
2023-04-10T20:16:12.428Z,26.60
2023-04-10T20:18:39.181Z,26.80
2023-04-10T20:21:07.794Z,26.90
2023-04-10T20:23:34.651Z,27.10
2023-04-10T20:26:01.378Z,27.10
2023-04-10T20:28:28.105Z,27.10
2023-04-10T20:30:54.837Z,27.20
2023-04-10T20:33:21.555Z,27.10
2023-04-10T20:35:48.355Z,27.40
2023-04-10T20:38:15.259Z,27.50
2023-04-10T20:40:42.058Z,27.60
2023-04-10T20:43:12.126Z,27.80
2023-04-10T20:45:39.427Z,27.70
2023-04-10T20:48:08.182Z,28.20
2023-04-10T20:50:34.978Z,28.20
2023-04-10T20:53:01.771Z,28.30
2023-04-10T20:55:28.574Z,28.60
2023-04-10T20:57:55.387Z,29.00
2023-04-10T21:00:22.234Z,29.00
2023-04-10T21:02:49.127Z,29.30
2023-04-10T21:05:16.073Z,29.30
2023-04-10T21:07:42.790Z,29.30
2023-04-10T21:10:09.741Z,29.50
2023-04-10T21:12:36.448Z,29.70
2023-04-10T21:15:03.764Z,29.80
2023-04-10T21:17:31.748Z,29.80
2023-04-10T21:19:59.366Z,29.90
2023-04-10T21:22:28.655Z,29.70
2023-04-10T21:24:56.272Z,29.80
2023-04-10T21:27:22.998Z,29.90
2023-04-10T21:29:49.702Z,29.90
2023-04-10T21:32:16.559Z,29.90
2023-04-10T21:34:43.410Z,29.70
2023-04-10T21:37:10.228Z,30.00
2023-04-10T21:39:41.159Z,30.00
2023-04-10T21:42:07.965Z,30.10
2023-04-10T21:44:34.726Z,30.20
2023-04-10T21:47:01.607Z,30.50
2023-04-10T21:49:28.434Z,30.40
2023-04-10T21:51:55.298Z,30.60
2023-04-10T21:54:22.047Z,30.90
2023-04-10T21:56:48.881Z,30.90
2023-04-10T21:59:15.644Z,31.30
2023-04-10T22:01:43.341Z,31.20
2023-04-10T22:04:10.377Z,31.30
2023-04-10T22:06:37.338Z,31.20
2023-04-10T22:09:04.190Z,31.30
2023-04-10T22:11:30.959Z,31.40
2023-04-10T22:14:00.219Z,31.40
2023-04-10T22:16:32.580Z,31.40
2023-04-10T22:19:00.154Z,31.50
2023-04-10T22:21:27.508Z,31.90
2023-04-10T22:23:54.253Z,31.70
2023-04-10T22:26:21.116Z,31.60
2023-04-10T22:28:47.940Z,31.80
2023-04-10T22:31:16.559Z,31.90
2023-04-10T22:33:43.578Z,31.90
2023-04-10T22:36:10.907Z,32.10
2023-04-10T22:38:37.796Z,32.20
2023-04-10T22:41:06.552Z,32.50
2023-04-10T22:43:35.250Z,32.80
2023-04-10T22:46:02.160Z,33.10
2023-04-10T22:48:28.993Z,33.30
2023-04-10T22:50:55.721Z,33.40
2023-04-10T22:53:22.461Z,33.70
2023-04-10T22:55:49.279Z,33.70
2023-04-10T22:58:16.072Z,33.90
2023-04-10T23:00:42.780Z,33.80
2023-04-10T23:03:09.566Z,33.80
2023-04-10T23:05:36.657Z,33.90
2023-04-10T23:08:03.411Z,34.00
2023-04-10T23:10:30.294Z,33.90
2023-04-10T23:12:57.034Z,34.30
2023-04-10T23:15:23.783Z,34.30
2023-04-10T23:17:50.649Z,35.10
2023-04-10T23:20:17.604Z,34.70
2023-04-10T23:22:44.356Z,34.80
2023-04-10T23:25:11.075Z,34.80
2023-04-10T23:27:37.804Z,34.80
2023-04-10T23:30:05.034Z,34.90
2023-04-10T23:32:31.864Z,34.80
2023-04-10T23:34:58.673Z,34.70
2023-04-10T23:37:25.918Z,34.70
2023-04-10T23:39:52.652Z,34.90
2023-04-10T23:42:19.397Z,35.20
2023-04-10T23:44:46.098Z,35.20
2023-04-10T23:47:12.984Z,35.20
2023-04-10T23:49:40.847Z,35.50
2023-04-10T23:52:07.595Z,35.40
2023-04-10T23:54:34.323Z,35.60
2023-04-10T23:57:01.017Z,35.50
2023-04-10T23:59:27.827Z,36.10
